Time;durP1;ratioP1;P1;durP2;ratioP2;P2;SDS_P1;SDS_P2;PMS_P1;PMS_P2;Temp;Humidity;BMP_temperature;BMP_pressure;BME280_temperature;BME280_humidity;BME280_pressure;Samples;Min_cycle;Max_cycle;Signal;HPM_P1;HPM_P2
2022/09/12 00:02:22;;;;;;;12.35;9.38;;;14.40;99.90;;;;;;5000503;28;20049;-77
2022/09/12 00:04:48;;;;;;;15.52;9.68;;;14.40;99.90;;;;;;4984788;28;20037;-78
2022/09/12 00:07:14;;;;;;;13.55;9.88;;;14.40;99.90;;;;;;4983667;28;20516;-81
2022/09/12 00:09:39;;;;;;;10.27;8.90;;;14.40;99.90;;;;;;5000255;28;20061;-78
2022/09/12 00:12:05;;;;;;;11.23;10.10;;;14.30;99.90;;;;;;5020281;28;20038;-77
2022/09/12 00:14:31;;;;;;;12.25;10.45;;;14.30;99.90;;;;;;5002248;28;20042;-78
2022/09/12 00:16:58;;;;;;;11.30;9.48;;;14.30;99.90;;;;;;4996937;28;20089;-79
2022/09/12 00:19:25;;;;;;;17.35;10.18;;;14.20;99.90;;;;;;4999846;28;20041;-75
2022/09/12 00:21:50;;;;;;;10.18;9.20;;;14.20;99.90;;;;;;5004911;28;20088;-76
2022/09/12 00:24:16;;;;;;;13.30;9.73;;;14.20;99.90;;;;;;5003827;28;20080;-77
2022/09/12 00:26:42;;;;;;;10.77;9.40;;;14.10;99.90;;;;;;4985796;28;20191;-78
2022/09/12 00:29:08;;;;;;;11.07;9.68;;;14.10;99.90;;;;;;5003329;28;20041;-76
2022/09/12 00:31:34;;;;;;;12.57;9.70;;;14.10;99.90;;;;;;4988107;28;20121;-80
2022/09/12 00:34:00;;;;;;;11.05;9.95;;;14.10;99.90;;;;;;5004519;28;20129;-78
2022/09/12 00:36:30;;;;;;;14.25;10.30;;;14.00;99.90;;;;;;4982783;28;20312;-80
2022/09/12 00:38:56;;;;;;;11.80;10.05;;;14.00;99.90;;;;;;4984146;28;20045;-77
2022/09/12 00:41:25;;;;;;;12.05;9.90;;;14.00;99.90;;;;;;5002185;28;20030;-76
2022/09/12 00:43:57;;;;;;;12.50;9.57;;;13.90;99.90;;;;;;5000167;28;20046;-77
2022/09/12 00:46:33;;;;;;;11.18;9.98;;;13.90;99.90;;;;;;5003155;28;20045;-78
2022/09/12 00:49:21;;;;;;;13.77;10.23;;;13.90;99.90;;;;;;4998349;28;20409;-77
2022/09/12 00:52:02;;;;;;;11.10;10.00;;;13.90;99.90;;;;;;5001976;28;20041;-78
2022/09/12 00:54:32;;;;;;;13.98;9.82;;;13.80;99.90;;;;;;4986009;28;20030;-78
2022/09/12 00:57:04;;;;;;;11.05;9.85;;;13.80;99.90;;;;;;4985002;28;20042;-77
2022/09/12 00:59:37;;;;;;;9.88;8.88;;;13.80;99.90;;;;;;4997235;28;20129;-77
2022/09/12 01:02:03;;;;;;;11.98;10.77;;;13.70;99.90;;;;;;5002480;28;20046;-79
2022/09/12 01:04:29;;;;;;;14.57;10.55;;;13.70;99.90;;;;;;4999479;28;20065;-75
2022/09/12 01:06:57;;;;;;;12.80;10.35;;;13.70;99.90;;;;;;4989867;28;20053;-79
2022/09/12 01:09:24;;;;;;;13.05;10.40;;;13.70;99.90;;;;;;5005377;28;20038;-81
2022/09/12 01:11:51;;;;;;;15.02;11.05;;;13.70;99.90;;;;;;4996469;28;20133;-78
2022/09/12 01:14:18;;;;;;;18.20;12.00;;;13.70;99.90;;;;;;5005111;28;20034;-78
2022/09/12 01:16:46;;;;;;;15.50;11.18;;;13.70;99.90;;;;;;4982427;28;20500;-80
2022/09/12 01:19:30;;;;;;;12.98;11.57;;;13.70;99.90;;;;;;5004142;28;20333;-81
2022/09/12 01:22:23;;;;;;;16.13;11.38;;;13.70;99.90;;;;;;5003100;28;20241;-77
2022/09/12 01:25:01;;;;;;;20.60;11.55;;;13.60;99.90;;;;;;4984063;28;20451;-75
2022/09/12 01:27:45;;;;;;;12.88;10.88;;;13.60;99.90;;;;;;4984229;28;20137;-76
2022/09/12 01:30:17;;;;;;;14.68;12.30;;;13.60;99.90;;;;;;4999579;28;20060;-75
2022/09/12 01:33:06;;;;;;;16.05;12.23;;;13.60;99.90;;;;;;5002480;28;20038;-77
2022/09/12 01:35:42;;;;;;;14.52;12.63;;;13.50;99.90;;;;;;4978819;28;20061;-78
2022/09/12 01:38:26;;;;;;;13.18;11.30;;;13.50;99.90;;;;;;5002573;28;20129;-77
2022/09/12 01:41:10;;;;;;;15.35;10.98;;;13.50;99.90;;;;;;4989703;28;20038;-76
2022/09/12 01:43:48;;;;;;;11.98;10.77;;;13.40;99.90;;;;;;4991547;28;20108;-76
2022/09/12 01:46:21;;;;;;;11.45;10.32;;;13.50;99.90;;;;;;4987733;28;20045;-77
2022/09/12 01:49:20;;;;;;;14.10;11.10;;;13.40;99.90;;;;;;4999033;28;20073;-79
2022/09/12 01:52:02;;;;;;;12.60;11.30;;;13.40;99.90;;;;;;5018782;28;20084;-76
2022/09/12 01:54:36;;;;;;;12.60;10.70;;;13.40;99.90;;;;;;5005357;28;20501;-74
2022/09/12 01:57:09;;;;;;;12.70;11.35;;;13.40;99.90;;;;;;5002848;28;20050;-76
2022/09/12 01:59:47;;;;;;;14.40;12.50;;;13.30;99.90;;;;;;4999521;28;20038;-77
2022/09/12 02:03:01;;;;;;;16.60;12.65;;;13.40;99.90;;;;;;5003135;28;20351;-75
2022/09/12 02:05:31;;;;;;;16.83;12.55;;;13.30;99.90;;;;;;5002205;28;20072;-78
2022/09/12 02:08:05;;;;;;;16.02;13.80;;;13.40;99.90;;;;;;5002213;28;20215;-76
2022/09/12 02:10:39;;;;;;;20.45;15.00;;;13.30;99.90;;;;;;5004136;28;20612;-77
2022/09/12 02:13:20;;;;;;;16.98;14.98;;;13.30;99.90;;;;;;5003119;28;20084;-77
2022/09/12 02:15:54;;;;;;;18.88;15.90;;;13.30;99.90;;;;;;4993824;28;20171;-78
2022/09/12 02:18:20;;;;;;;19.63;15.45;;;13.40;99.90;;;;;;5003907;28;20076;-77
2022/09/12 02:20:49;;;;;;;17.48;15.00;;;13.40;99.90;;;;;;5002197;28;20073;-78
2022/09/12 02:23:27;;;;;;;19.45;16.27;;;13.50;99.90;;;;;;5001691;28;20064;-78
2022/09/12 02:25:57;;;;;;;17.50;14.68;;;13.40;99.90;;;;;;5006057;28;20510;-77
2022/09/12 02:28:34;;;;;;;16.88;15.10;;;13.40;99.90;;;;;;4994095;28;20254;-77
2022/09/12 02:31:21;;;;;;;28.70;19.48;;;13.40;99.90;;;;;;4980395;28;20503;-77
2022/09/12 02:34:16;;;;;;;24.17;18.95;;;13.40;99.90;;;;;;4984867;28;20128;-78
2022/09/12 02:36:50;;;;;;;19.25;16.50;;;13.30;99.90;;;;;;4976442;28;20038;-79
2022/09/12 02:39:19;;;;;;;25.80;18.25;;;13.40;99.90;;;;;;4985467;28;20053;-77
2022/09/12 02:41:49;;;;;;;23.42;19.13;;;13.30;99.90;;;;;;4998438;28;20045;-79
2022/09/12 02:44:15;;;;;;;24.02;17.90;;;13.30;99.90;;;;;;4997553;28;20054;-79
2022/09/12 02:46:48;;;;;;;23.33;20.15;;;13.30;99.90;;;;;;4979223;28;20038;-77
2022/09/12 02:49:15;;;;;;;19.50;17.33;;;13.40;99.90;;;;;;4992252;28;20150;-79
2022/09/12 02:51:41;;;;;;;23.08;18.90;;;13.40;99.90;;;;;;4996260;28;20092;-77
2022/09/12 02:54:08;;;;;;;20.30;17.63;;;13.40;99.90;;;;;;4998814;28;20050;-77
2022/09/12 02:56:35;;;;;;;23.25;18.80;;;13.30;99.90;;;;;;4993827;28;20042;-76
2022/09/12 02:59:07;;;;;;;21.60;18.45;;;13.40;99.90;;;;;;4978280;28;20041;-79
2022/09/12 03:01:42;;;;;;;25.13;19.85;;;13.40;99.90;;;;;;4995149;28;20058;-77
2022/09/12 03:04:23;;;;;;;;;;;13.40;99.90;;;;;;4998107;28;20119;-80
2022/09/12 03:06:55;;;;;;;23.80;19.70;;;13.40;99.90;;;;;;4983465;28;20064;-80
2022/09/12 03:09:38;;;;;;;26.92;21.83;;;13.50;99.90;;;;;;5000385;28;20068;-77
2022/09/12 03:12:22;;;;;;;23.77;20.77;;;13.50;99.90;;;;;;4983393;28;20037;-76
2022/09/12 03:14:54;;;;;;;25.37;20.47;;;13.50;99.90;;;;;;4996768;28;20052;-77
2022/09/12 03:17:45;;;;;;;26.77;21.27;;;13.50;99.90;;;;;;4983784;28;20685;-80
2022/09/12 03:20:33;;;;;;;27.55;19.75;;;13.60;99.90;;;;;;4989015;28;20498;-79
2022/09/12 03:23:10;;;;;;;22.85;20.15;;;13.60;99.90;;;;;;5003221;28;20041;-78
2022/09/12 03:25:43;;;;;;;26.55;20.65;;;13.60;99.90;;;;;;4997765;28;20412;-78
2022/09/12 03:28:12;;;;;;;26.38;19.95;;;13.60;99.90;;;;;;4984787;28;20369;-77
2022/09/12 03:30:43;;;;;;;25.63;19.40;;;13.70;99.90;;;;;;5001019;28;20045;-76
2022/09/12 03:33:17;;;;;;;24.90;19.67;;;13.60;99.90;;;;;;4999765;28;20041;-79
2022/09/12 03:35:45;;;;;;;29.05;20.92;;;13.60;99.90;;;;;;4998646;28;20033;-79
2022/09/12 03:38:10;;;;;;;23.40;19.77;;;13.60;99.90;;;;;;5000123;28;20339;-81
2022/09/12 03:40:37;;;;;;;23.38;19.27;;;13.60;99.90;;;;;;4999627;28;20243;-78
2022/09/12 03:43:04;;;;;;;26.42;19.30;;;13.60;99.90;;;;;;5002194;28;20129;-78
2022/09/12 03:45:30;;;;;;;22.55;18.90;;;13.50;99.90;;;;;;4991521;28;20042;-77
2022/09/12 03:47:56;;;;;;;21.83;18.83;;;13.50;99.90;;;;;;5002412;28;20042;-79
2022/09/12 03:50:22;;;;;;;22.77;19.33;;;13.60;99.90;;;;;;4985558;28;20041;-78
2022/09/12 03:52:48;;;;;;;21.50;18.20;;;13.50;99.90;;;;;;4978521;28;20315;-77
2022/09/12 03:55:13;;;;;;;24.95;19.60;;;13.50;99.90;;;;;;4980040;28;20053;-77
2022/09/12 03:57:39;;;;;;;28.45;19.52;;;13.40;99.90;;;;;;5000051;28;20454;-77
2022/09/12 04:00:07;;;;;;;21.83;17.92;;;13.50;99.90;;;;;;4998821;28;20033;-77
2022/09/12 04:02:33;;;;;;;22.20;17.95;;;13.40;99.90;;;;;;4985099;28;20042;-77
2022/09/12 04:04:59;;;;;;;23.77;18.67;;;13.40;99.90;;;;;;4983492;28;20042;-78
2022/09/12 04:07:25;;;;;;;24.83;18.17;;;13.30;99.90;;;;;;4984511;28;20037;-76
2022/09/12 04:09:52;;;;;;;21.02;17.88;;;13.40;99.90;;;;;;4999928;28;20038;-77
2022/09/12 04:12:21;;;;;;;22.15;18.92;;;13.30;99.90;;;;;;4988796;28;20060;-77
2022/09/12 04:14:47;;;;;;;22.85;19.10;;;13.30;99.90;;;;;;5000659;28;20110;-77
2022/09/12 04:17:13;;;;;;;29.52;20.25;;;13.30;99.90;;;;;;4985471;28;20080;-78
2022/09/12 04:19:39;;;;;;;28.15;20.85;;;13.30;99.90;;;;;;4983008;28;20030;-78
2022/09/12 04:22:05;;;;;;;27.25;20.80;;;13.30;99.90;;;;;;5003106;28;20053;-76
2022/09/12 04:24:30;;;;;;;29.35;21.40;;;13.40;99.90;;;;;;4982627;28;20409;-80
2022/09/12 04:26:56;;;;;;;27.88;21.60;;;13.30;99.90;;;;;;5001626;28;20050;-76
2022/09/12 04:29:22;;;;;;;24.55;20.52;;;13.40;99.90;;;;;;4999772;28;20049;-74
2022/09/12 04:31:47;;;;;;;25.98;21.60;;;13.40;99.90;;;;;;4996615;28;20042;-76
2022/09/12 04:34:14;;;;;;;27.17;21.40;;;13.30;99.90;;;;;;4984256;28;20053;-80
2022/09/12 04:36:40;;;;;;;26.20;20.38;;;13.30;99.90;;;;;;4995238;28;20057;-76
2022/09/12 04:39:06;;;;;;;28.90;21.95;;;13.40;99.90;;;;;;4999839;28;20125;-76
2022/09/12 04:41:37;;;;;;;29.15;22.80;;;13.40;99.90;;;;;;4982156;28;20033;-77
2022/09/12 04:44:06;;;;;;;29.88;22.20;;;13.40;99.90;;;;;;5001589;28;20149;-78
2022/09/12 04:46:35;;;;;;;32.33;23.77;;;13.40;99.90;;;;;;4997394;28;20038;-76
2022/09/12 04:49:01;;;;;;;30.38;24.00;;;13.40;99.90;;;;;;4995098;28;20108;-76
2022/09/12 04:51:34;;;;;;;31.30;24.23;;;13.50;99.90;;;;;;4998142;28;20157;-77
2022/09/12 04:54:02;;;;;;;33.08;24.95;;;13.60;99.90;;;;;;4981645;28;20038;-79
2022/09/12 04:56:29;;;;;;;31.83;24.38;;;13.60;99.90;;;;;;4983290;28;20055;-78
2022/09/12 04:59:00;;;;;;;32.03;23.65;;;13.60;99.90;;;;;;4999183;28;20121;-75
2022/09/12 05:01:27;;;;;;;31.23;23.65;;;13.70;99.90;;;;;;4980053;28;20424;-78
2022/09/12 05:03:54;;;;;;;33.97;25.45;;;13.70;99.90;;;;;;5000470;28;20033;-75
2022/09/12 05:06:22;;;;;;;34.50;25.23;;;13.80;99.90;;;;;;4985159;28;20043;-80
2022/09/12 05:08:48;;;;;;;31.05;24.00;;;13.80;99.90;;;;;;5004593;28;20039;-77
2022/09/12 05:11:18;;;;;;;36.30;26.30;;;13.70;99.90;;;;;;4984757;28;20584;-75
2022/09/12 05:13:44;;;;;;;33.95;25.27;;;13.80;99.90;;;;;;4986459;28;20042;-78
2022/09/12 05:16:11;;;;;;;41.38;25.48;;;13.80;99.90;;;;;;4999595;28;20383;-77
2022/09/12 05:18:38;;;;;;;36.95;25.60;;;13.90;99.90;;;;;;5004149;28;20436;-77
2022/09/12 05:21:06;;;;;;;34.97;25.35;;;14.00;99.90;;;;;;5003025;28;20639;-80
2022/09/12 05:23:33;;;;;;;35.58;26.67;;;13.90;99.90;;;;;;4985811;28;20052;-78
2022/09/12 05:26:00;;;;;;;34.35;25.83;;;14.00;99.90;;;;;;4999235;28;20102;-76
2022/09/12 05:28:30;;;;;;;33.42;25.65;;;14.00;99.90;;;;;;4994257;28;20057;-78
2022/09/12 05:31:11;;;;;;;35.35;27.08;;;14.00;99.90;;;;;;4995461;28;20053;-78
2022/09/12 05:33:38;;;;;;;31.33;23.48;;;14.00;99.90;;;;;;4984207;28;20164;-77
2022/09/12 05:36:06;;;;;;;40.47;27.13;;;14.10;99.90;;;;;;4994534;28;20041;-78
2022/09/12 05:38:34;;;;;;;34.60;26.23;;;14.10;99.90;;;;;;4982404;28;20453;-77
2022/09/12 05:41:11;;;;;;;37.10;27.25;;;14.10;99.90;;;;;;4996076;28;20128;-79
2022/09/12 05:43:38;;;;;;;38.42;27.25;;;14.20;99.90;;;;;;5004447;28;20076;-79
2022/09/12 05:46:07;;;;;;;38.95;26.27;;;14.10;99.90;;;;;;5001132;28;21225;-78
2022/09/12 05:48:37;;;;;;;37.92;26.67;;;14.20;99.90;;;;;;4980765;28;20081;-80
2022/09/12 05:51:07;;;;;;;34.50;26.40;;;14.20;99.90;;;;;;4996119;28;20508;-78
2022/09/12 05:53:34;;;;;;;36.53;26.23;;;14.10;99.90;;;;;;4982319;28;20065;-77
2022/09/12 05:56:05;;;;;;;36.05;25.60;;;14.30;99.90;;;;;;4977215;28;20073;-77
2022/09/12 05:58:31;;;;;;;38.35;26.45;;;14.30;99.90;;;;;;4993606;28;22365;-80
2022/09/12 06:01:02;;;;;;;38.08;26.55;;;14.30;99.90;;;;;;4992332;28;20099;-79
2022/09/12 06:03:27;;;;;;;37.20;26.42;;;14.30;99.90;;;;;;4999655;28;20046;-78
2022/09/12 06:05:53;;;;;;;35.28;25.17;;;14.30;99.90;;;;;;5000968;28;20057;-79
2022/09/12 06:08:18;;;;;;;34.08;25.17;;;14.30;99.90;;;;;;4999328;28;20042;-77
2022/09/12 06:10:44;;;;;;;35.75;25.02;;;14.40;99.90;;;;;;5001719;28;20042;-77
2022/09/12 06:13:10;;;;;;;33.47;24.52;;;14.50;99.90;;;;;;4991449;28;20130;-79
2022/09/12 06:15:36;;;;;;;33.65;25.23;;;14.50;99.90;;;;;;4980379;28;20405;-75
2022/09/12 06:18:02;;;;;;;32.47;24.70;;;14.50;99.90;;;;;;4997430;28;20137;-78
2022/09/12 06:20:27;;;;;;;34.63;25.38;;;14.60;99.90;;;;;;4995464;28;20129;-79
2022/09/12 06:22:53;;;;;;;35.95;25.65;;;14.60;99.90;;;;;;4998023;28;20045;-80
2022/09/12 06:25:19;;;;;;;35.65;25.02;;;14.60;99.90;;;;;;4996758;28;20506;-79
2022/09/12 06:27:46;;;;;;;36.58;25.45;;;14.70;99.90;;;;;;4995948;28;20700;-76
2022/09/12 06:30:12;;;;;;;38.90;26.25;;;14.70;99.90;;;;;;4978925;28;20069;-77
2022/09/12 06:32:38;;;;;;;29.35;23.55;;;14.80;99.90;;;;;;4976256;28;20951;-78
2022/09/12 06:35:04;;;;;;;41.70;26.67;;;14.80;99.90;;;;;;4975166;28;20051;-77
2022/09/12 06:37:30;;;;;;;37.00;26.17;;;14.80;99.90;;;;;;4997040;28;20054;-77
2022/09/12 06:39:56;;;;;;;37.28;26.38;;;14.80;99.90;;;;;;4992919;28;20057;-79
2022/09/12 06:42:21;;;;;;;36.40;26.80;;;14.80;99.90;;;;;;4995925;28;20060;-78
2022/09/12 06:44:47;;;;;;;35.83;27.35;;;14.90;99.90;;;;;;4992472;28;20054;-79
2022/09/12 06:47:13;;;;;;;43.92;27.30;;;15.00;99.90;;;;;;4994016;28;20050;-78
2022/09/12 06:49:38;;;;;;;36.42;27.02;;;15.00;99.90;;;;;;4983037;28;20324;-78
2022/09/12 06:52:06;;;;;;;36.72;26.77;;;15.00;99.90;;;;;;4992623;28;20065;-76
2022/09/12 06:54:32;;;;;;;42.17;28.63;;;15.00;99.90;;;;;;4997503;28;20046;-82
2022/09/12 06:56:58;;;;;;;40.05;28.45;;;15.10;99.90;;;;;;4999939;28;20030;-76
2022/09/12 06:59:24;;;;;;;39.90;27.20;;;15.00;99.90;;;;;;5000526;28;20088;-76
2022/09/12 07:01:49;;;;;;;40.72;28.60;;;15.10;99.90;;;;;;4984403;28;20038;-76
2022/09/12 07:04:15;;;;;;;41.78;28.77;;;15.20;99.90;;;;;;5007380;28;20050;-77
2022/09/12 07:06:42;;;;;;;40.55;28.65;;;15.30;99.90;;;;;;4989676;28;20046;-76
2022/09/12 07:09:15;;;;;;;47.17;29.98;;;15.30;99.90;;;;;;5009838;28;20068;-76
2022/09/12 07:11:42;;;;;;;48.67;28.98;;;15.40;99.90;;;;;;5008626;28;20095;-74
2022/09/12 07:14:12;;;;;;;48.50;30.40;;;15.40;99.90;;;;;;4991345;28;20055;-78
2022/09/12 07:16:37;;;;;;;42.83;29.52;;;15.50;99.90;;;;;;4989858;28;20096;-76
2022/09/12 07:19:06;;;;;;;42.28;28.52;;;15.70;99.90;;;;;;4988027;28;20077;-76
2022/09/12 07:21:38;;;;;;;44.55;29.77;;;15.80;99.90;;;;;;4998921;28;20038;-84
2022/09/12 07:24:04;;;;;;;45.00;30.30;;;15.90;99.90;;;;;;5004081;28;21618;-75
2022/09/12 07:26:30;;;;;;;51.47;31.00;;;15.90;99.90;;;;;;5017230;28;20429;-79
2022/09/12 07:28:58;;;;;;;44.72;30.33;;;16.00;99.90;;;;;;4986785;28;20053;-74
2022/09/12 07:31:25;;;;;;;46.70;32.33;;;16.10;99.90;;;;;;4984230;28;20057;-78
2022/09/12 07:33:51;;;;;;;45.30;32.38;;;16.10;99.90;;;;;;4996023;28;20127;-76
2022/09/12 07:36:19;;;;;;;44.58;31.67;;;16.20;99.90;;;;;;4996620;28;20050;-77
2022/09/12 07:38:45;;;;;;;51.40;33.03;;;16.30;99.90;;;;;;4976907;28;21892;-80
2022/09/12 07:41:23;;;;;;;48.65;33.97;;;16.30;99.90;;;;;;4995352;28;20057;-80
2022/09/12 07:43:57;;;;;;;55.50;32.10;;;16.40;99.90;;;;;;4974561;28;20140;-76
2022/09/12 07:46:24;;;;;;;52.53;34.67;;;16.40;99.90;;;;;;4995353;28;20680;-78
2022/09/12 07:48:54;;;;;;;56.55;35.90;;;16.50;99.90;;;;;;4978813;28;20065;-78
2022/09/12 07:51:22;;;;;;;45.17;27.20;;;16.60;99.90;;;;;;5002100;28;20045;-81
2022/09/12 07:53:48;;;;;;;47.58;32.47;;;16.60;99.90;;;;;;4983213;28;20583;-80
2022/09/12 07:56:15;;;;;;;44.45;30.60;;;16.90;99.90;;;;;;4999358;28;20141;-78
2022/09/12 07:58:44;;;;;;;47.97;31.23;;;17.00;99.90;;;;;;4983547;28;20394;-81
2022/09/12 08:01:12;;;;;;;51.25;34.72;;;17.20;99.90;;;;;;4978936;28;20103;-79
2022/09/12 08:03:39;;;;;;;56.92;36.08;;;17.10;99.90;;;;;;4998961;28;20059;-81
2022/09/12 08:06:20;;;;;;;51.30;34.50;;;17.20;99.90;;;;;;4982146;28;20128;-82
2022/09/12 08:08:46;;;;;;;60.03;36.88;;;17.20;99.90;;;;;;5001169;28;20124;-82
2022/09/12 08:11:15;;;;;;;62.50;36.72;;;17.10;99.90;;;;;;4982328;28;20042;-81
2022/09/12 08:14:01;;;;;;;63.00;36.80;;;17.20;99.90;;;;;;4999133;28;20053;-80
2022/09/12 08:16:30;;;;;;;59.63;36.28;;;17.20;99.90;;;;;;4975232;28;20554;-79
2022/09/12 08:18:56;;;;;;;53.78;35.80;;;17.30;99.90;;;;;;4986143;28;20504;-78
2022/09/12 08:21:27;;;;;;;61.50;36.78;;;17.30;99.90;;;;;;4999093;28;20414;-79
2022/09/12 08:23:55;;;;;;;58.45;36.45;;;17.30;99.90;;;;;;4981367;28;20038;-83
2022/09/12 08:26:20;;;;;;;62.40;36.67;;;17.40;99.90;;;;;;5019027;28;20042;-84
2022/09/12 08:28:46;;;;;;;60.58;37.30;;;17.40;99.90;;;;;;5000022;28;20041;-82
2022/09/12 08:31:18;;;;;;;59.03;37.35;;;17.50;99.90;;;;;;4996341;28;20056;-81
2022/09/12 08:33:44;;;;;;;58.60;35.75;;;17.70;99.90;;;;;;5002059;28;20057;-80
2022/09/12 08:36:21;;;;;;;56.28;36.20;;;17.70;99.90;;;;;;5001441;28;20034;-82
2022/09/12 08:38:49;;;;;;;54.05;35.15;;;17.90;99.90;;;;;;4983380;28;20038;-83
2022/09/12 08:41:18;;;;;;;56.55;35.35;;;18.00;99.90;;;;;;5003163;28;20046;-82
2022/09/12 08:44:08;;;;;;;50.60;34.50;;;18.10;99.90;;;;;;5007258;28;20053;-77
2022/09/12 08:46:50;;;;;;;55.08;34.20;;;18.20;99.90;;;;;;5007114;28;20169;-80
2022/09/12 08:49:53;;;;;;;53.15;34.75;;;18.30;99.90;;;;;;5027111;28;20065;-80
2022/09/12 08:52:34;;;;;;;52.28;33.03;;;18.40;99.90;;;;;;5004885;28;20148;-81
2022/09/12 08:55:05;;;;;;;51.72;33.75;;;18.50;99.90;;;;;;4984157;28;20160;-80
2022/09/12 08:57:32;;;;;;;52.72;34.03;;;18.50;99.90;;;;;;4992645;28;20061;-80
2022/09/12 09:00:01;;;;;;;38.45;25.67;;;18.60;99.90;;;;;;4969899;28;20140;-80
2022/09/12 09:02:48;;;;;;;41.42;28.17;;;18.70;99.90;;;;;;4987870;28;20050;-80
2022/09/12 09:05:31;;;;;;;42.92;29.02;;;18.90;99.90;;;;;;4986144;28;20084;-81
2022/09/12 09:08:04;;;;;;;45.90;32.05;;;19.10;99.90;;;;;;4964037;28;20077;-81
2022/09/12 09:10:47;;;;;;;44.67;28.55;;;19.30;99.90;;;;;;4985907;28;20049;-81
2022/09/12 09:16:37;;;;;;;40.20;26.17;;;19.50;99.90;;;;;;4986641;28;20160;-80
2022/09/12 09:19:24;;;;;;;41.75;28.67;;;19.70;99.90;;;;;;5000969;28;20065;-81
2022/09/12 09:22:13;;;;;;;45.45;28.83;;;19.80;99.90;;;;;;4984534;28;20057;-81
2022/09/12 09:24:43;;;;;;;45.00;29.40;;;19.70;99.90;;;;;;4983227;28;20144;-81
2022/09/12 09:27:26;;;;;;;34.20;24.27;;;19.70;99.90;;;;;;4981497;28;20494;-80
2022/09/12 09:29:54;;;;;;;38.15;24.83;;;19.80;99.90;;;;;;4994453;28;20085;-79
2022/09/12 09:32:29;;;;;;;33.30;23.75;;;19.80;99.90;;;;;;4984298;28;20429;-79
2022/09/12 09:34:55;;;;;;;34.35;24.67;;;19.80;99.90;;;;;;4998375;28;20050;-78
2022/09/12 09:37:40;;;;;;;38.10;24.73;;;19.90;99.90;;;;;;4994579;28;20041;-78
2022/09/12 09:40:48;;;;;;;36.38;24.23;;;19.90;99.90;;;;;;4987002;28;20081;-76
2022/09/12 09:43:21;;;;;;;40.95;26.10;;;20.00;99.90;;;;;;4973378;28;20510;-76
2022/09/12 09:45:51;;;;;;;40.53;24.67;;;20.10;99.90;;;;;;4962691;28;20113;-76
2022/09/12 09:48:30;;;;;;;38.08;24.50;;;20.20;99.90;;;;;;4959804;28;20256;-76
2022/09/12 09:50:59;;;;;;;42.25;28.15;;;20.30;99.90;;;;;;4963555;28;20046;-78
2022/09/12 09:53:51;;;;;;;41.53;27.92;;;20.40;99.90;;;;;;4953501;28;20050;-79
2022/09/12 09:56:26;;;;;;;43.67;28.60;;;20.50;99.90;;;;;;4966019;28;20149;-79
2022/09/12 09:58:52;;;;;;;41.90;27.73;;;20.50;99.90;;;;;;4958942;28;20090;-79
2022/09/12 10:01:18;;;;;;;43.55;28.50;;;20.50;99.90;;;;;;4958202;28;20061;-77
2022/09/12 10:03:55;;;;;;;44.70;28.70;;;20.70;99.90;;;;;;4965669;28;20069;-79
2022/09/12 10:06:20;;;;;;;45.50;28.67;;;20.80;99.90;;;;;;4938623;28;20057;-78
2022/09/12 10:08:48;;;;;;;45.20;30.02;;;20.90;99.90;;;;;;4969700;28;20054;-78
2022/09/12 10:11:22;;;;;;;44.92;28.60;;;21.00;99.90;;;;;;4964142;28;20085;-78
2022/09/12 10:13:56;;;;;;;45.63;29.07;;;21.40;99.90;;;;;;4971425;28;20494;-77
2022/09/12 10:16:32;;;;;;;47.08;30.30;;;21.60;99.90;;;;;;4953026;28;20051;-77
2022/09/12 10:19:02;;;;;;;44.80;27.25;;;21.80;99.90;;;;;;4987204;28;20490;-75
2022/09/12 10:21:33;;;;;;;39.58;26.33;;;22.00;99.90;;;;;;5001478;28;20050;-78
2022/09/12 10:24:04;;;;;;;36.67;24.92;;;22.10;99.90;;;;;;4997551;28;20084;-75
2022/09/12 10:26:37;;;;;;;30.63;20.63;;;22.30;99.90;;;;;;4999778;28;20042;-76
2022/09/12 10:29:13;;;;;;;32.55;21.67;;;22.50;99.90;;;;;;4985728;28;20048;-75
2022/09/12 10:31:50;;;;;;;32.45;20.25;;;22.80;99.90;;;;;;5000696;28;20115;-75
2022/09/12 10:34:26;;;;;;;33.70;22.30;;;22.70;99.90;;;;;;4994905;28;20058;-76
2022/09/12 10:36:58;;;;;;;36.92;21.48;;;23.10;99.90;;;;;;4992195;28;20517;-79
2022/09/12 10:39:25;;;;;;;30.40;20.60;;;23.20;99.90;;;;;;5001319;28;20545;-79
2022/09/12 10:41:50;;;;;;;26.45;18.42;;;23.40;99.90;;;;;;4997797;28;20050;-76
2022/09/12 10:44:24;;;;;;;29.23;18.00;;;23.50;99.90;;;;;;5003290;28;20068;-76
2022/09/12 10:46:50;;;;;;;26.95;18.88;;;23.70;99.90;;;;;;4999026;28;20042;-78
2022/09/12 10:49:28;;;;;;;29.50;19.00;;;23.80;99.90;;;;;;5003228;28;20061;-78
2022/09/12 10:51:55;;;;;;;25.52;17.05;;;23.80;99.90;;;;;;4982230;28;20058;-77
2022/09/12 10:54:25;;;;;;;24.65;16.65;;;23.90;99.90;;;;;;5003926;28;20050;-79
2022/09/12 10:57:27;;;;;;;27.83;18.73;;;23.80;99.90;;;;;;5001400;28;20179;-78
2022/09/12 11:00:15;;;;;;;31.08;18.77;;;23.80;99.90;;;;;;4993653;28;20054;-78
2022/09/12 11:03:01;;;;;;;32.92;19.67;;;23.60;99.90;;;;;;4982164;28;20073;-77
2022/09/12 11:05:36;;;;;;;30.30;19.85;;;23.60;99.90;;;;;;4994306;28;20041;-80
2022/09/12 11:08:20;;;;;;;31.13;19.52;;;23.80;99.90;;;;;;4999662;28;20057;-77
2022/09/12 11:10:58;;;;;;;29.13;19.45;;;24.00;99.90;;;;;;4986532;28;20046;-76
2022/09/12 11:13:24;;;;;;;27.95;19.83;;;24.30;99.90;;;;;;4999574;28;20033;-75
2022/09/12 11:16:14;;;;;;;30.25;18.83;;;24.50;99.90;;;;;;5000782;28;20478;-79
2022/09/12 11:19:02;;;;;;;24.92;16.38;;;24.60;99.90;;;;;;5000800;28;20723;-76
2022/09/12 11:21:52;;;;;;;23.63;15.52;;;24.60;99.90;;;;;;5001004;28;20038;-76
2022/09/12 11:24:27;;;;;;;27.05;17.42;;;24.70;99.90;;;;;;4983467;28;20124;-76
2022/09/12 11:27:02;;;;;;;26.73;17.65;;;24.90;99.90;;;;;;4983539;28;20478;-78
2022/09/12 11:29:56;;;;;;;47.25;16.45;;;25.10;99.90;;;;;;4997329;28;20141;-76
2022/09/12 11:32:40;;;;;;;15.73;10.50;;;25.30;99.90;;;;;;4998991;28;20120;-75
2022/09/12 11:35:06;;;;;;;;;;;25.60;99.90;;;;;;5003046;28;20139;-78
2022/09/12 11:38:07;;;;;;;22.80;10.98;;;25.50;99.90;;;;;;4984582;28;19925;-77
2022/09/12 11:40:56;;;;;;;13.70;10.02;;;25.30;99.90;;;;;;4995586;28;21898;-77
2022/09/12 11:43:24;;;;;;;14.30;10.30;;;25.40;99.90;;;;;;5002708;28;20050;-76
2022/09/12 11:45:51;;;;;;;15.82;9.80;;;25.20;99.90;;;;;;4995597;28;20172;-78
2022/09/12 11:48:56;;;;;;;13.95;8.02;;;25.30;99.90;;;;;;5000139;28;20386;-77
2022/09/12 11:51:36;;;;;;;12.18;7.40;;;25.50;99.90;;;;;;4996469;28;20057;-78
2022/09/12 11:54:11;;;;;;;12.32;8.20;;;25.50;99.90;;;;;;5017917;28;20053;-77
2022/09/12 11:56:46;;;;;;;9.57;7.70;;;25.70;99.90;;;;;;4979694;28;20049;-77
2022/09/12 11:59:34;;;;;;;12.10;8.38;;;25.60;99.90;;;;;;4982705;28;20046;-76
2022/09/12 12:02:02;;;;;;;12.82;9.07;;;25.90;99.90;;;;;;5001425;28;21150;-76
2022/09/12 12:04:45;;;;;;;12.52;9.07;;;26.10;99.90;;;;;;5003032;28;20050;-75
2022/09/12 12:07:11;;;;;;;12.07;8.40;;;26.00;99.80;;;;;;4987578;28;20138;-76
2022/09/12 12:09:49;;;;;;;15.50;8.55;;;26.30;99.90;;;;;;5009137;28;20120;-77
2022/09/12 12:12:21;;;;;;;11.05;7.47;;;26.00;99.90;;;;;;4981149;28;20508;-77
2022/09/12 12:14:49;;;;;;;13.27;6.55;;;25.90;99.70;;;;;;5006821;28;20361;-78
2022/09/12 12:17:18;;;;;;;11.50;7.30;;;25.60;99.70;;;;;;4985674;28;20504;-77
2022/09/12 12:19:46;;;;;;;9.23;7.00;;;25.80;99.10;;;;;;5001966;28;20042;-77
2022/09/12 12:22:15;;;;;;;11.75;6.63;;;25.90;99.20;;;;;;4993272;28;20172;-77
2022/09/12 12:25:13;;;;;;;9.38;5.75;;;26.00;99.40;;;;;;5002534;28;20107;-78
2022/09/12 12:27:52;;;;;;;6.28;4.30;;;26.50;98.30;;;;;;4990527;28;20172;-76
2022/09/12 12:30:58;;;;;;;8.13;5.13;;;26.60;97.20;;;;;;4978312;28;20057;-78
2022/09/12 12:33:23;;;;;;;6.68;4.72;;;26.40;97.70;;;;;;4970985;28;20058;-77
2022/09/12 12:35:58;;;;;;;6.97;4.00;;;26.30;97.80;;;;;;4981376;28;20057;-79
2022/09/12 12:38:27;;;;;;;8.85;4.40;;;26.10;98.00;;;;;;4973845;28;20065;-79
2022/09/12 12:41:13;;;;;;;9.05;4.00;;;26.30;97.00;;;;;;4966904;28;20046;-79
2022/09/12 12:43:39;;;;;;;4.82;3.40;;;26.30;97.60;;;;;;4897313;29;20055;-79
2022/09/12 12:46:07;;;;;;;6.65;5.13;;;26.30;96.40;;;;;;4912619;29;20075;-79
2022/09/12 12:48:44;;;;;;;12.60;5.03;;;26.30;96.60;;;;;;4914570;29;20071;-80
2022/09/12 12:51:27;;;;;;;8.80;5.00;;;26.10;97.30;;;;;;4899708;29;20479;-79
2022/09/12 12:53:54;;;;;;;8.38;5.30;;;25.90;97.70;;;;;;4913994;29;20450;-75
2022/09/12 12:57:03;;;;;;;11.90;6.07;;;25.80;98.10;;;;;;4911802;29;20060;-79
2022/09/12 12:59:30;;;;;;;5.45;4.80;;;25.80;98.40;;;;;;4863857;29;20053;-81
2022/09/12 13:01:58;;;;;;;9.68;4.90;;;26.10;98.20;;;;;;4886927;29;20045;-79